createdAt,value
2018-06-18T00:00:59.140Z,7.10
2018-06-18T00:03:27.951Z,6.77
2018-06-18T00:05:56.764Z,5.00
2018-06-18T00:08:25.571Z,7.40
2018-06-18T00:10:54.384Z,4.83
2018-06-18T00:13:23.227Z,6.67
2018-06-18T00:15:52.200Z,6.33
2018-06-18T00:18:21.008Z,5.27
2018-06-18T00:20:49.805Z,6.40
2018-06-18T00:23:18.643Z,5.70
2018-06-18T00:25:47.424Z,5.27
2018-06-18T00:28:16.263Z,6.53
2018-06-18T00:30:45.068Z,5.07
2018-06-18T00:33:13.880Z,5.03
2018-06-18T00:35:42.671Z,4.90
2018-06-18T00:38:11.484Z,4.73
2018-06-18T00:40:41.176Z,6.00
2018-06-18T00:43:10.223Z,7.20
2018-06-18T00:45:39.652Z,5.67
2018-06-18T00:48:08.462Z,5.03
2018-06-18T00:50:37.266Z,9.60
2018-06-18T00:53:06.084Z,5.87
2018-06-18T00:55:46.566Z,6.50
2018-06-18T00:58:15.407Z,6.47
2018-06-18T01:00:44.219Z,6.50
2018-06-18T01:03:13.061Z,5.70
2018-06-18T01:05:41.871Z,9.00
2018-06-18T01:08:10.691Z,8.20
2018-06-18T01:10:40.295Z,6.10
2018-06-18T01:13:09.111Z,5.83
2018-06-18T01:15:37.936Z,4.63
2018-06-18T01:18:06.771Z,5.40
2018-06-18T01:20:35.580Z,5.67
2018-06-18T01:23:22.472Z,7.07
2018-06-18T01:25:51.285Z,7.27
2018-06-18T01:28:20.011Z,6.33
2018-06-18T01:30:48.716Z,9.70
2018-06-18T01:33:17.563Z,7.10
2018-06-18T01:35:46.400Z,7.67
2018-06-18T01:38:15.224Z,7.83
2018-06-18T01:40:44.039Z,10.07
2018-06-18T01:43:12.882Z,7.60
2018-06-18T01:45:41.737Z,10.07
2018-06-18T01:48:10.553Z,9.23
2018-06-18T01:50:39.412Z,7.73
2018-06-18T01:53:08.400Z,5.93
2018-06-18T01:55:37.349Z,8.30
2018-06-18T01:58:06.174Z,9.97
2018-06-18T02:00:34.993Z,9.77
2018-06-18T02:03:03.824Z,7.87
2018-06-18T02:05:32.637Z,5.77
2018-06-18T02:08:01.721Z,7.63
2018-06-18T02:10:30.658Z,8.80
2018-06-18T02:12:59.451Z,6.87
2018-06-18T02:15:28.277Z,8.37
2018-06-18T02:17:57.085Z,6.97
2018-06-18T02:20:25.922Z,7.60
2018-06-18T02:22:54.735Z,6.33
2018-06-18T02:25:23.667Z,7.90
2018-06-18T02:27:58.159Z,6.60
2018-06-18T02:31:32.381Z,8.43
2018-06-18T02:34:06.653Z,5.57
2018-06-18T02:36:40.869Z,7.47
2018-06-18T02:39:13.844Z,12.33
2018-06-18T02:41:43.433Z,8.60
2018-06-18T02:44:12.515Z,8.30
2018-06-18T02:46:41.526Z,9.27
2018-06-18T02:49:10.500Z,7.63
2018-06-18T02:51:39.319Z,8.70
2018-06-18T02:54:08.913Z,8.63
2018-06-18T02:56:49.756Z,9.63
2018-06-18T02:59:18.773Z,5.77
2018-06-18T03:01:47.604Z,7.30
2018-06-18T03:04:16.420Z,13.37
2018-06-18T03:06:45.222Z,8.93
2018-06-18T03:09:14.052Z,8.83
2018-06-18T03:11:42.902Z,8.53
2018-06-18T03:14:11.717Z,9.53
2018-06-18T03:16:40.544Z,9.43
2018-06-18T03:19:14.852Z,8.97
2018-06-18T03:21:49.292Z,8.17
2018-06-18T03:24:23.610Z,7.37
2018-06-18T03:26:57.952Z,10.87
2018-06-18T03:29:29.920Z,7.17
2018-06-18T03:32:00.389Z,8.83
2018-06-18T03:34:29.124Z,10.83
2018-06-18T03:36:58.753Z,10.67
2018-06-18T03:39:27.564Z,11.30
2018-06-18T03:41:56.379Z,10.67
2018-06-18T03:44:29.617Z,9.50
2018-06-18T03:47:01.609Z,13.73
2018-06-18T03:49:30.415Z,10.77
2018-06-18T03:51:59.044Z,9.03
2018-06-18T03:54:27.729Z,9.73
2018-06-18T03:56:56.537Z,10.87
2018-06-18T03:59:25.577Z,7.93
2018-06-18T04:02:05.517Z,8.93
2018-06-18T04:04:46.112Z,12.20
2018-06-18T04:07:22.092Z,14.13
2018-06-18T04:09:56.474Z,10.83
2018-06-18T04:12:25.288Z,10.77
2018-06-18T04:14:54.108Z,12.03
2018-06-18T04:17:22.929Z,11.13
2018-06-18T04:19:51.747Z,14.77
2018-06-18T04:22:20.564Z,12.83
2018-06-18T04:24:49.464Z,10.73
2018-06-18T04:27:18.389Z,12.23
2018-06-18T04:29:47.229Z,11.93
2018-06-18T04:32:16.060Z,11.00
2018-06-18T04:34:47.067Z,10.20
2018-06-18T04:37:15.889Z,9.50
2018-06-18T04:39:44.719Z,11.67
2018-06-18T04:42:19.092Z,13.80
2018-06-18T04:44:53.376Z,10.23
2018-06-18T04:47:27.515Z,9.47
2018-06-18T04:50:01.646Z,11.50
2018-06-18T04:52:30.671Z,12.00
2018-06-18T04:54:59.523Z,11.03
2018-06-18T04:57:28.324Z,8.57
2018-06-18T05:00:06.490Z,9.83
2018-06-18T05:02:35.384Z,8.53
2018-06-18T05:05:04.192Z,10.80
2018-06-18T05:07:33.343Z,9.77
2018-06-18T05:10:08.184Z,7.83
2018-06-18T05:12:36.996Z,8.40
2018-06-18T05:15:05.864Z,7.00
2018-06-18T05:17:34.672Z,8.90
2018-06-18T05:20:03.525Z,8.13
2018-06-18T05:22:32.419Z,7.10
2018-06-18T05:25:01.295Z,5.70
2018-06-18T05:27:32.168Z,7.47
2018-06-18T05:30:08.377Z,5.97
2018-06-18T05:32:37.205Z,7.27
2018-06-18T05:35:07.136Z,4.73
2018-06-18T05:37:42.778Z,8.93
2018-06-18T05:40:11.572Z,6.97
2018-06-18T05:42:40.439Z,4.43
2018-06-18T05:45:09.253Z,6.70
2018-06-18T05:47:38.212Z,4.03
2018-06-18T05:50:07.025Z,5.67
2018-06-18T05:52:35.865Z,2.43
2018-06-18T05:55:04.678Z,6.90
2018-06-18T05:57:33.872Z,3.43
2018-06-18T06:00:04.417Z,5.40
2018-06-18T06:02:33.253Z,4.10
2018-06-18T06:05:02.061Z,3.63
2018-06-18T06:07:30.893Z,4.67
2018-06-18T06:09:59.697Z,2.97
2018-06-18T06:12:28.507Z,3.73
2018-06-18T06:14:57.365Z,2.37
2018-06-18T06:17:26.191Z,4.07
2018-06-18T06:19:54.996Z,3.77
2018-06-18T06:22:23.832Z,4.87
2018-06-18T06:24:52.689Z,3.53
2018-06-18T06:27:21.704Z,2.93
2018-06-18T06:29:50.525Z,4.40
2018-06-18T06:32:19.790Z,3.17
2018-06-18T06:34:52.985Z,3.87
2018-06-18T06:37:21.843Z,4.43
2018-06-18T06:39:50.641Z,2.50
2018-06-18T06:42:19.499Z,3.83
2018-06-18T06:44:48.508Z,3.00
2018-06-18T06:47:17.310Z,3.20
2018-06-18T06:49:46.218Z,3.37
2018-06-18T06:52:15.004Z,7.07
2018-06-18T06:54:43.807Z,4.23
2018-06-18T06:57:12.617Z,3.57
2018-06-18T06:59:41.441Z,3.83
2018-06-18T07:02:10.245Z,4.97
2018-06-18T07:04:39.069Z,4.47
2018-06-18T07:07:07.876Z,5.83
2018-06-18T07:09:37.213Z,3.70
2018-06-18T07:12:06.025Z,4.40
2018-06-18T07:14:34.835Z,3.67
2018-06-18T07:17:03.650Z,5.57
2018-06-18T07:19:32.452Z,5.40
2018-06-18T07:22:01.257Z,6.13
2018-06-18T07:24:30.086Z,6.00
2018-06-18T07:26:58.914Z,6.67
2018-06-18T07:29:27.724Z,9.57
2018-06-18T07:31:56.555Z,3.93
2018-06-18T07:34:25.366Z,5.07
2018-06-18T07:36:54.175Z,5.63
2018-06-18T07:39:23.030Z,7.30
2018-06-18T07:41:51.872Z,6.97
2018-06-18T07:44:20.681Z,6.60
2018-06-18T07:46:49.493Z,4.30
2018-06-18T07:49:18.346Z,6.70
2018-06-18T07:51:47.163Z,4.70
2018-06-18T07:54:15.958Z,8.40
2018-06-18T07:56:44.824Z,5.87
2018-06-18T07:59:13.764Z,6.70
2018-06-18T08:01:42.585Z,7.17
2018-06-18T08:04:11.414Z,5.40
2018-06-18T08:06:40.228Z,5.53
2018-06-18T08:09:10.865Z,7.40
2018-06-18T08:11:39.688Z,6.77
2018-06-18T08:14:08.635Z,4.87
2018-06-18T08:16:37.423Z,6.03
2018-06-18T08:19:06.262Z,9.63
2018-06-18T08:21:35.220Z,7.60
2018-06-18T08:24:04.120Z,6.13
2018-06-18T08:26:33.013Z,5.03
2018-06-18T08:29:01.887Z,3.77
2018-06-18T08:31:30.886Z,5.57
2018-06-18T08:34:00.208Z,4.97
2018-06-18T08:36:28.997Z,6.10
2018-06-18T08:38:57.793Z,7.23
2018-06-18T08:41:26.592Z,4.53
2018-06-18T08:43:55.433Z,5.00
2018-06-18T08:46:24.234Z,5.53
2018-06-18T08:48:58.468Z,6.27
2018-06-18T08:51:33.701Z,6.83
2018-06-18T08:54:08.031Z,5.43
2018-06-18T08:56:42.444Z,4.40
2018-06-18T08:59:16.918Z,3.63
2018-06-18T09:01:46.442Z,4.00
2018-06-18T09:04:20.620Z,3.37
2018-06-18T09:06:49.463Z,5.97
2018-06-18T09:09:18.267Z,7.33
2018-06-18T09:11:47.076Z,3.13
2018-06-18T09:14:15.896Z,6.10
2018-06-18T09:16:44.705Z,6.10
2018-06-18T09:19:13.503Z,4.40
2018-06-18T09:21:42.325Z,4.90
2018-06-18T09:24:11.148Z,4.33
2018-06-18T09:26:39.954Z,3.60
2018-06-18T09:29:08.765Z,3.80
2018-06-18T09:31:41.904Z,5.77
2018-06-18T09:34:10.728Z,2.23
2018-06-18T09:36:39.525Z,4.83
2018-06-18T09:39:08.323Z,3.43
2018-06-18T09:41:37.134Z,3.77
2018-06-18T09:44:05.945Z,4.60
2018-06-18T09:46:34.840Z,4.40
2018-06-18T09:49:09.108Z,2.67
2018-06-18T09:51:43.496Z,2.23
2018-06-18T09:54:17.826Z,2.13
2018-06-18T09:56:51.928Z,2.73
2018-06-18T09:59:31.172Z,1.60
2018-06-18T10:01:59.968Z,2.57
2018-06-18T10:04:28.771Z,4.77
2018-06-18T10:06:57.576Z,3.07
2018-06-18T10:09:26.371Z,2.20
2018-06-18T10:11:55.189Z,1.60
2018-06-18T10:14:24.072Z,4.37
2018-06-18T10:16:52.792Z,3.30
2018-06-18T10:19:21.602Z,3.27
2018-06-18T10:21:50.398Z,2.90
2018-06-18T10:24:19.227Z,2.23
2018-06-18T10:26:48.115Z,2.03
2018-06-18T10:29:17.002Z,3.47
2018-06-18T10:31:45.799Z,2.50
2018-06-18T10:34:20.166Z,2.93
2018-06-18T10:36:54.582Z,3.37
2018-06-18T10:39:29.049Z,3.20
2018-06-18T10:42:03.306Z,2.27
2018-06-18T10:44:32.121Z,1.87
2018-06-18T10:47:00.933Z,3.00
2018-06-18T10:49:29.731Z,3.00
2018-06-18T10:51:58.549Z,3.33
2018-06-18T10:54:27.356Z,4.77
2018-06-18T10:56:56.195Z,2.50
2018-06-18T10:59:24.993Z,2.43
2018-06-18T11:01:53.783Z,2.47
2018-06-18T11:04:28.085Z,3.53
2018-06-18T11:06:56.924Z,2.30
2018-06-18T11:09:25.723Z,1.90
2018-06-18T11:11:54.521Z,4.43
2018-06-18T11:14:23.321Z,2.93
2018-06-18T11:16:57.813Z,3.17
2018-06-18T11:19:31.686Z,3.10
2018-06-18T11:22:04.909Z,2.30
2018-06-18T11:24:39.369Z,4.10
2018-06-18T11:27:08.737Z,3.67
2018-06-18T11:29:37.506Z,3.47
2018-06-18T11:32:06.527Z,3.80
2018-06-18T11:34:35.347Z,3.10
2018-06-18T11:37:04.170Z,2.07
2018-06-18T11:39:33.019Z,4.77
2018-06-18T11:42:01.903Z,2.60
2018-06-18T11:44:30.603Z,5.00
2018-06-18T11:46:59.407Z,3.13
2018-06-18T11:49:28.255Z,2.87
2018-06-18T11:51:57.151Z,2.97
2018-06-18T11:54:25.951Z,2.67
2018-06-18T11:56:54.760Z,6.93
2018-06-18T11:59:28.905Z,4.27
2018-06-18T12:02:03.192Z,3.20
2018-06-18T12:04:37.522Z,4.20
2018-06-18T12:07:11.915Z,6.63
2018-06-18T12:09:42.285Z,3.13
2018-06-18T12:12:11.064Z,4.37
2018-06-18T12:14:39.900Z,2.90
2018-06-18T12:17:08.709Z,3.47
2018-06-18T12:19:37.527Z,4.80
2018-06-18T12:22:06.342Z,3.23
2018-06-18T12:24:35.144Z,4.67
2018-06-18T12:27:04.476Z,1.50
2018-06-18T12:29:33.269Z,2.23
2018-06-18T12:32:02.093Z,2.53
2018-06-18T12:34:31.184Z,1.70
2018-06-18T12:37:00.032Z,2.57
2018-06-18T12:39:28.819Z,1.90
2018-06-18T12:42:01.712Z,4.20
2018-06-18T12:44:36.900Z,3.83
2018-06-18T12:48:09.312Z,3.83
2018-06-18T12:50:43.661Z,2.93
2018-06-18T12:53:19.070Z,2.50
2018-06-18T12:55:53.263Z,2.67
2018-06-18T12:58:23.201Z,2.67
2018-06-18T13:00:52.015Z,4.37
2018-06-18T13:03:20.856Z,3.53
2018-06-18T13:05:49.670Z,3.80
2018-06-18T13:08:18.808Z,4.20
2018-06-18T13:10:47.609Z,2.60
2018-06-18T13:13:16.317Z,3.83
2018-06-18T13:15:45.051Z,3.60
2018-06-18T13:18:13.847Z,3.60
2018-06-18T13:20:42.659Z,2.83
2018-06-18T13:23:11.479Z,3.43
2018-06-18T13:25:40.275Z,3.07
2018-06-18T13:28:15.632Z,2.30
2018-06-18T13:30:44.995Z,3.33
2018-06-18T13:33:13.819Z,4.03
2018-06-18T13:35:42.642Z,2.70
2018-06-18T13:38:16.950Z,3.70
2018-06-18T13:40:51.061Z,5.20
2018-06-18T13:43:25.372Z,3.30
2018-06-18T13:45:58.462Z,3.37
2018-06-18T13:48:32.663Z,4.13
2018-06-18T13:51:01.465Z,2.80
2018-06-18T13:53:30.319Z,2.70
2018-06-18T13:55:59.132Z,3.07
2018-06-18T13:58:27.936Z,5.57
2018-06-18T14:00:56.733Z,5.10
2018-06-18T14:03:25.544Z,5.50
2018-06-18T14:05:54.387Z,3.77
2018-06-18T14:08:23.235Z,4.57
2018-06-18T14:10:52.040Z,3.53
2018-06-18T14:13:20.845Z,2.67
2018-06-18T14:15:49.650Z,3.70
2018-06-18T14:18:18.505Z,3.53
2018-06-18T14:20:47.371Z,4.93
2018-06-18T14:23:16.901Z,5.37
2018-06-18T14:25:45.712Z,5.97
2018-06-18T14:28:14.524Z,4.27
2018-06-18T14:30:48.757Z,3.80
2018-06-18T14:33:22.925Z,5.77
2018-06-18T14:35:57.154Z,2.53
2018-06-18T14:38:31.593Z,6.67
2018-06-18T14:41:00.435Z,3.83
2018-06-18T14:43:29.310Z,2.20
2018-06-18T14:45:58.396Z,4.77
2018-06-18T14:48:27.321Z,3.20
2018-06-18T14:50:56.097Z,4.63
2018-06-18T14:53:24.927Z,2.73
2018-06-18T14:55:59.502Z,2.80
2018-06-18T14:58:28.169Z,3.37
2018-06-18T15:00:56.996Z,3.13
2018-06-18T15:03:25.812Z,2.80
2018-06-18T15:05:54.629Z,3.40
2018-06-18T15:08:23.457Z,4.10
2018-06-18T15:10:53.267Z,4.53
2018-06-18T15:13:22.267Z,3.13
2018-06-18T15:15:56.358Z,3.80
2018-06-18T15:18:25.243Z,6.73
2018-06-18T15:20:57.025Z,4.60
2018-06-18T15:26:04.264Z,2.80
2018-06-18T15:28:33.034Z,3.80
2018-06-18T15:31:01.844Z,2.73
2018-06-18T15:33:30.657Z,4.90
2018-06-18T15:35:59.565Z,4.77
2018-06-18T15:38:28.420Z,6.07
2018-06-18T15:40:57.180Z,3.03
2018-06-18T15:43:25.996Z,3.97
2018-06-18T15:45:54.800Z,3.20
2018-06-18T15:48:23.687Z,3.97
2018-06-18T15:50:52.487Z,2.93
2018-06-18T15:53:21.322Z,4.00
2018-06-18T15:55:50.128Z,4.37
2018-06-18T15:58:18.957Z,2.57
2018-06-18T16:00:47.775Z,24.10
2018-06-18T16:03:16.629Z,3.00
2018-06-18T16:05:45.420Z,4.20
2018-06-18T16:08:14.248Z,2.20
2018-06-18T16:10:43.053Z,3.53
2018-06-18T16:13:11.869Z,3.30
2018-06-18T16:15:40.671Z,2.60
2018-06-18T16:18:09.791Z,2.13
2018-06-18T16:20:38.601Z,2.57
2018-06-18T16:23:07.417Z,3.47
2018-06-18T16:25:36.418Z,2.40
2018-06-18T16:28:05.240Z,3.10
2018-06-18T16:30:34.096Z,3.57
2018-06-18T16:33:02.900Z,2.60
2018-06-18T16:35:31.711Z,4.27
2018-06-18T16:38:00.551Z,3.87
2018-06-18T16:40:29.355Z,1.93
2018-06-18T16:42:58.164Z,2.37
2018-06-18T16:45:26.996Z,3.10
2018-06-18T16:47:55.807Z,3.17
2018-06-18T16:50:24.713Z,2.90
2018-06-18T16:52:53.517Z,2.17
2018-06-18T16:55:22.419Z,1.77
2018-06-18T16:57:51.221Z,4.63
2018-06-18T17:00:20.029Z,2.57
2018-06-18T17:02:48.800Z,2.90
2018-06-18T17:05:17.403Z,2.13
2018-06-18T17:07:46.216Z,1.90
2018-06-18T17:10:15.123Z,1.50
2018-06-18T17:12:43.995Z,2.37
2018-06-18T17:15:12.817Z,2.23
2018-06-18T17:17:41.618Z,2.80
2018-06-18T17:20:10.418Z,2.47
2018-06-18T17:22:39.223Z,1.60
2018-06-18T17:25:08.343Z,3.67
2018-06-18T17:27:37.154Z,2.30
2018-06-18T17:30:05.953Z,3.30
2018-06-18T17:32:34.764Z,2.33
2018-06-18T17:35:03.573Z,5.43
2018-06-18T17:37:32.388Z,2.90
2018-06-18T17:40:01.182Z,3.30
2018-06-18T17:42:29.993Z,4.43
2018-06-18T17:44:58.803Z,5.83
2018-06-18T17:47:27.621Z,3.70
2018-06-18T17:49:56.461Z,2.40
2018-06-18T17:52:25.236Z,2.33
2018-06-18T17:54:54.206Z,4.30
2018-06-18T17:57:23.013Z,3.37
2018-06-18T17:59:51.821Z,1.27
2018-06-18T18:02:20.640Z,1.60
2018-06-18T18:04:49.438Z,3.40
2018-06-18T18:07:18.254Z,2.87
2018-06-18T18:09:47.065Z,1.90
2018-06-18T18:12:15.872Z,1.73
2018-06-18T18:14:44.671Z,2.37
2018-06-18T18:17:13.480Z,1.83
2018-06-18T18:19:42.325Z,1.83
2018-06-18T18:22:11.145Z,2.23
2018-06-18T18:24:39.953Z,2.00
2018-06-18T18:27:08.873Z,2.27
2018-06-18T18:29:37.681Z,2.40
2018-06-18T18:32:06.495Z,2.20
2018-06-18T18:34:35.108Z,2.60
2018-06-18T18:37:03.809Z,1.60
2018-06-18T18:39:32.620Z,4.10
2018-06-18T18:42:02.030Z,4.13
2018-06-18T18:44:30.844Z,1.73
2018-06-18T18:46:59.661Z,3.47
2018-06-18T18:49:28.473Z,1.87
2018-06-18T18:51:57.304Z,1.23
2018-06-18T18:55:45.695Z,2.03
2018-06-18T18:58:26.032Z,1.70
2018-06-18T19:00:54.840Z,3.47
2018-06-18T19:03:25.521Z,2.37
2018-06-18T19:05:55.515Z,2.40
2018-06-18T19:08:29.304Z,2.33
2018-06-18T19:11:00.188Z,2.40
2018-06-18T19:13:32.882Z,3.23
2018-06-18T19:16:01.652Z,2.37
2018-06-18T19:18:30.623Z,1.70
2018-06-18T19:21:05.148Z,1.83
2018-06-18T19:23:33.960Z,3.37
2018-06-18T19:26:02.797Z,2.40
2018-06-18T19:28:32.020Z,2.03
2018-06-18T19:31:05.203Z,2.33
2018-06-18T19:33:39.324Z,2.93
2018-06-18T19:36:08.487Z,2.87
2018-06-18T19:38:37.807Z,3.87
2018-06-18T19:41:06.608Z,3.63
2018-06-18T19:43:35.420Z,2.03
2018-06-18T19:46:04.486Z,2.33
2018-06-18T19:48:38.383Z,3.57
2018-06-18T19:51:07.470Z,2.73
2018-06-18T19:53:36.262Z,2.20
2018-06-18T19:56:05.102Z,5.23
2018-06-18T19:58:33.904Z,5.40
2018-06-18T20:01:04.481Z,4.07
2018-06-18T20:03:33.297Z,4.43
2018-06-18T20:06:02.097Z,3.47
2018-06-18T20:08:31.460Z,3.57
2018-06-18T20:11:00.257Z,2.80
2018-06-18T20:13:29.128Z,2.50
2018-06-18T20:15:57.879Z,3.17
2018-06-18T20:18:26.795Z,3.83
2018-06-18T20:20:55.616Z,4.60
2018-06-18T20:23:25.612Z,4.23
2018-06-18T20:25:59.520Z,3.30
2018-06-18T20:28:28.341Z,3.27
2018-06-18T20:30:57.389Z,3.80
2018-06-18T20:33:26.187Z,3.57
2018-06-18T20:36:00.715Z,3.10
2018-06-18T20:38:29.556Z,4.03
2018-06-18T20:40:58.368Z,3.50
2018-06-18T20:43:30.444Z,3.30
2018-06-18T20:45:59.261Z,5.07
2018-06-18T20:48:28.055Z,3.33
2018-06-18T20:50:56.855Z,5.10
2018-06-18T20:53:25.660Z,3.97
2018-06-18T20:55:54.493Z,3.43
2018-06-18T20:58:23.292Z,4.10
2018-06-18T21:00:52.104Z,3.63
2018-06-18T21:03:20.917Z,4.00
2018-06-18T21:05:49.725Z,3.43
2018-06-18T21:08:18.524Z,5.00
2018-06-18T21:10:47.333Z,4.67
2018-06-18T21:13:16.147Z,4.03
2018-06-18T21:15:44.951Z,3.50
2018-06-18T21:18:13.771Z,4.10
2018-06-18T21:20:42.568Z,3.97
2018-06-18T21:23:11.384Z,3.43
2018-06-18T21:25:40.541Z,3.40
2018-06-18T21:28:09.397Z,3.77
2018-06-18T21:30:38.173Z,4.07
2018-06-18T21:33:06.971Z,4.50
2018-06-18T21:35:35.804Z,3.20
2018-06-18T21:38:05.284Z,4.40
2018-06-18T21:40:34.099Z,4.20
2018-06-18T21:43:02.904Z,3.67
2018-06-18T21:45:31.997Z,4.47
2018-06-18T21:48:00.871Z,5.63
2018-06-18T21:50:29.754Z,3.67
2018-06-18T21:52:58.567Z,3.90
2018-06-18T21:55:27.372Z,4.17
2018-06-18T21:57:56.200Z,4.87
2018-06-18T22:00:34.142Z,3.40
2018-06-18T22:03:02.940Z,5.90
2018-06-18T22:05:31.600Z,5.60
2018-06-18T22:08:00.602Z,4.33
2018-06-18T22:10:29.400Z,3.77
2018-06-18T22:12:58.199Z,3.90
2018-06-18T22:15:27.021Z,5.77
2018-06-18T22:17:55.863Z,4.03
2018-06-18T22:20:25.436Z,4.80
2018-06-18T22:22:54.296Z,4.10
2018-06-18T22:25:23.098Z,3.70
2018-06-18T22:27:51.969Z,3.80
2018-06-18T22:30:20.981Z,3.90
2018-06-18T22:32:49.880Z,3.73
2018-06-18T22:35:18.888Z,6.83
2018-06-18T22:37:47.709Z,4.33
2018-06-18T22:40:16.891Z,3.93
2018-06-18T22:42:45.684Z,3.47
2018-06-18T22:45:14.487Z,3.40
2018-06-18T22:47:43.744Z,4.23
2018-06-18T22:50:12.560Z,4.10
2018-06-18T22:52:41.388Z,4.13
2018-06-18T22:55:10.221Z,5.03
2018-06-18T22:57:39.041Z,3.37
2018-06-18T23:00:07.836Z,4.40
2018-06-18T23:02:36.639Z,3.67
2018-06-18T23:05:05.474Z,4.73
2018-06-18T23:07:34.300Z,6.97
2018-06-18T23:10:03.107Z,3.90
2018-06-18T23:12:35.109Z,4.93
2018-06-18T23:15:04.310Z,3.43
2018-06-18T23:17:33.116Z,3.97
2018-06-18T23:20:01.913Z,3.40
2018-06-18T23:22:30.721Z,4.47
2018-06-18T23:24:59.532Z,5.03
2018-06-18T23:27:28.326Z,5.83
2018-06-18T23:29:57.142Z,6.63
2018-06-18T23:32:25.968Z,4.57
2018-06-18T23:34:54.805Z,3.90
2018-06-18T23:37:23.599Z,6.83
2018-06-18T23:39:52.413Z,3.93
2018-06-18T23:42:21.212Z,3.57
2018-06-18T23:44:50.551Z,5.77
2018-06-18T23:47:19.360Z,3.93
2018-06-18T23:49:48.160Z,3.40
2018-06-18T23:52:16.964Z,5.53
2018-06-18T23:54:45.776Z,6.13
2018-06-18T23:57:14.629Z,6.73
2018-06-18T23:59:43.500Z,4.10
